BAW748 EGLL-LSGG
Flight info
| Callsign | BAW748 |
|---|---|
| Flight time | 1h 24m |
| Altitude | 37000 |
| Route | MODMI M185 MID UL612 VEULE DCT PEKIM DCT PILUL DCT PIMUP/N0434F270 DCT PIXIS DCT PIBAT/N0407F230 DCT LUSAR |
| Aircraft | A320/M-SDE3FGHIRWY/LB1 |
Departure
| Time | 2026-05-05 13:25 |
|---|---|
| Airport | London Heathrow Airport (EGLL) |
Arrival
| Time | 2026-05-05 14:49 |
|---|---|
| Airport | Geneva International Airport (LSGG) |
| Time | Latitude | Longitude | Altitude | Speed | Heading |
|---|---|---|---|---|---|
| 2026-05-05 12:57 | 51.47395 | -0.48757 | 90 ft | 0 kts | 179° |
| 2026-05-05 12:58 | 51.47400 | -0.48757 | 89 ft | 0 kts | 180° |
| 2026-05-05 13:16 | 51.47404 | -0.48757 | 86 ft | 3 kts | 180° |
| 2026-05-05 13:17 | 51.47431 | -0.48758 | 86 ft | 4 kts | 180° |
| 2026-05-05 13:17 | 51.47454 | -0.48758 | 86 ft | 3 kts | 179° |
| 2026-05-05 13:17 | 51.47477 | -0.48764 | 88 ft | 4 kts | 138° |
| 2026-05-05 13:17 | 51.47486 | -0.48795 | 87 ft | 3 kts | 90° |
| 2026-05-05 13:18 | 51.47486 | -0.48821 | 87 ft | 0 kts | 90° |
| 2026-05-05 13:19 | 51.47486 | -0.48815 | 88 ft | 2 kts | 90° |
| 2026-05-05 13:20 | 51.47487 | -0.48764 | 86 ft | 6 kts | 90° |
| 2026-05-05 13:20 | 51.47487 | -0.48678 | 87 ft | 11 kts | 89° |
| 2026-05-05 13:20 | 51.47488 | -0.48541 | 86 ft | 13 kts | 89° |
| 2026-05-05 13:20 | 51.47420 | -0.48471 | 87 ft | 15 kts | 179° |
| 2026-05-05 13:21 | 51.47344 | -0.48471 | 90 ft | 10 kts | 179° |
| 2026-05-05 13:21 | 51.47278 | -0.48471 | 90 ft | 9 kts | 180° |
| 2026-05-05 13:21 | 51.47213 | -0.48470 | 86 ft | 10 kts | 180° |
| 2026-05-05 13:21 | 51.47136 | -0.48470 | 86 ft | 12 kts | 180° |
| 2026-05-05 13:22 | 51.47046 | -0.48470 | 86 ft | 14 kts | 180° |
| 2026-05-05 13:22 | 51.46944 | -0.48469 | 87 ft | 16 kts | 179° |
| 2026-05-05 13:22 | 51.46829 | -0.48468 | 86 ft | 17 kts | 179° |
| 2026-05-05 13:22 | 51.46702 | -0.48466 | 86 ft | 19 kts | 180° |
| 2026-05-05 13:23 | 51.46567 | -0.48465 | 86 ft | 19 kts | 180° |
| 2026-05-05 13:23 | 51.46477 | -0.48422 | 90 ft | 12 kts | 103° |
| 2026-05-05 13:23 | 51.46478 | -0.48385 | 89 ft | 1 kts | 85° |
| 2026-05-05 13:23 | 51.46479 | -0.48371 | 88 ft | 2 kts | 85° |
| 2026-05-05 13:24 | 51.46482 | -0.48259 | 89 ft | 35 kts | 87° |
| 2026-05-05 13:24 | 51.46486 | -0.47495 | 89 ft | 98 kts | 89° |
| 2026-05-05 13:24 | 51.46487 | -0.46145 | 89 ft | 142 kts | 90° |
| 2026-05-05 13:24 | 51.46504 | -0.44398 | 363 ft | 159 kts | 89° |
| 2026-05-05 13:25 | 51.46465 | -0.42620 | 915 ft | 166 kts | 90° |
| 2026-05-05 13:25 | 51.46317 | -0.40753 | 1498 ft | 173 kts | 103° |
| 2026-05-05 13:25 | 51.45813 | -0.38944 | 2014 ft | 185 kts | 118° |
| 2026-05-05 13:25 | 51.44971 | -0.37217 | 2244 ft | 212 kts | 133° |
| 2026-05-05 13:26 | 51.43703 | -0.35695 | 2484 ft | 244 kts | 152° |
| 2026-05-05 13:26 | 51.42017 | -0.34802 | 2959 ft | 266 kts | 170° |
| 2026-05-05 13:26 | 51.40170 | -0.35151 | 3801 ft | 272 kts | 200° |
| 2026-05-05 13:26 | 51.38493 | -0.36581 | 4718 ft | 274 kts | 213° |
| 2026-05-05 13:27 | 51.36831 | -0.38134 | 5570 ft | 278 kts | 205° |
| 2026-05-05 13:27 | 51.34981 | -0.39008 | 6432 ft | 280 kts | 183° |
| 2026-05-05 13:27 | 51.33039 | -0.38813 | 7244 ft | 280 kts | 171° |
| 2026-05-05 13:27 | 51.31100 | -0.38401 | 8060 ft | 282 kts | 171° |
| 2026-05-05 13:28 | 51.29146 | -0.37963 | 8864 ft | 286 kts | 172° |
| 2026-05-05 13:28 | 51.27160 | -0.37516 | 9644 ft | 290 kts | 172° |
| 2026-05-05 13:28 | 51.25147 | -0.37065 | 10304 ft | 297 kts | 172° |
| 2026-05-05 13:28 | 51.23019 | -0.36589 | 10504 ft | 320 kts | 172° |
| 2026-05-05 13:29 | 51.20734 | -0.36083 | 10652 ft | 343 kts | 171° |
| 2026-05-05 13:29 | 51.18319 | -0.35550 | 11037 ft | 355 kts | 171° |
| 2026-05-05 13:29 | 51.15853 | -0.35011 | 11630 ft | 360 kts | 172° |
| 2026-05-05 13:29 | 51.13354 | -0.34468 | 12256 ft | 365 kts | 171° |
| 2026-05-05 13:30 | 51.10824 | -0.33918 | 12901 ft | 368 kts | 171° |
| 2026-05-05 13:30 | 51.08276 | -0.33368 | 13531 ft | 372 kts | 171° |
| 2026-05-05 13:30 | 51.05697 | -0.32812 | 14159 ft | 375 kts | 171° |
| 2026-05-05 13:30 | 51.03101 | -0.32250 | 14763 ft | 377 kts | 170° |
| 2026-05-05 13:31 | 51.00488 | -0.31682 | 15312 ft | 381 kts | 171° |
| 2026-05-05 13:31 | 50.97855 | -0.31109 | 15896 ft | 383 kts | 171° |
| 2026-05-05 13:31 | 50.95196 | -0.30533 | 16458 ft | 386 kts | 171° |
| 2026-05-05 13:31 | 50.92523 | -0.29957 | 17080 ft | 389 kts | 171° |
| 2026-05-05 13:32 | 50.89834 | -0.29382 | 17690 ft | 391 kts | 172° |
| 2026-05-05 13:32 | 50.87130 | -0.28801 | 18300 ft | 394 kts | 172° |
| 2026-05-05 13:32 | 50.84404 | -0.28209 | 18836 ft | 397 kts | 171° |
| 2026-05-05 13:32 | 50.81657 | -0.27614 | 19384 ft | 399 kts | 172° |
| 2026-05-05 13:33 | 50.78894 | -0.27021 | 19924 ft | 402 kts | 172° |
| 2026-05-05 13:33 | 50.76107 | -0.26425 | 20461 ft | 405 kts | 172° |
| 2026-05-05 13:33 | 50.73307 | -0.25804 | 20967 ft | 408 kts | 169° |
| 2026-05-05 13:33 | 50.70563 | -0.24646 | 21443 ft | 410 kts | 160° |
| 2026-05-05 13:34 | 50.67968 | -0.22747 | 21910 ft | 413 kts | 150° |
| 2026-05-05 13:34 | 50.65549 | -0.20268 | 22356 ft | 416 kts | 146° |
| 2026-05-05 13:34 | 50.63135 | -0.17719 | 22792 ft | 419 kts | 146° |
| 2026-05-05 13:34 | 50.60697 | -0.15159 | 23202 ft | 423 kts | 146° |
| 2026-05-05 13:35 | 50.58238 | -0.12596 | 23596 ft | 426 kts | 146° |
| 2026-05-05 13:35 | 50.55759 | -0.10018 | 23964 ft | 428 kts | 147° |
| 2026-05-05 13:35 | 50.53277 | -0.07441 | 24369 ft | 428 kts | 147° |
| 2026-05-05 13:35 | 50.50791 | -0.04862 | 24783 ft | 428 kts | 147° |
| 2026-05-05 13:36 | 50.48276 | -0.02252 | 25191 ft | 428 kts | 147° |
| 2026-05-05 13:36 | 50.45790 | 0.00327 | 25593 ft | 428 kts | 146° |
| 2026-05-05 13:36 | 50.43303 | 0.02907 | 25994 ft | 428 kts | 147° |
| 2026-05-05 13:36 | 50.40818 | 0.05483 | 26384 ft | 429 kts | 147° |
| 2026-05-05 13:37 | 50.38331 | 0.08060 | 26788 ft | 429 kts | 147° |
| 2026-05-05 13:37 | 50.35835 | 0.10642 | 27144 ft | 431 kts | 147° |
| 2026-05-05 13:37 | 50.33328 | 0.13229 | 27478 ft | 432 kts | 147° |
| 2026-05-05 13:37 | 50.30810 | 0.15823 | 27822 ft | 434 kts | 147° |
| 2026-05-05 13:38 | 50.28296 | 0.18411 | 28282 ft | 432 kts | 147° |
| 2026-05-05 13:38 | 50.25789 | 0.20988 | 28761 ft | 430 kts | 147° |
| 2026-05-05 13:38 | 50.23292 | 0.23549 | 29265 ft | 428 kts | 147° |
| 2026-05-05 13:38 | 50.20808 | 0.26095 | 29761 ft | 426 kts | 147° |
| 2026-05-05 13:39 | 50.18336 | 0.28630 | 30267 ft | 423 kts | 147° |
| 2026-05-05 13:39 | 50.15891 | 0.31147 | 30757 ft | 420 kts | 147° |
| 2026-05-05 13:39 | 50.13459 | 0.33654 | 31175 ft | 419 kts | 147° |
| 2026-05-05 13:39 | 50.11029 | 0.36153 | 31566 ft | 418 kts | 147° |
| 2026-05-05 13:40 | 50.08598 | 0.38648 | 31946 ft | 418 kts | 148° |
| 2026-05-05 13:40 | 50.06168 | 0.41135 | 32330 ft | 418 kts | 148° |
| 2026-05-05 13:40 | 50.03743 | 0.43617 | 32706 ft | 418 kts | 148° |
| 2026-05-05 13:40 | 50.01314 | 0.46100 | 33081 ft | 417 kts | 148° |
| 2026-05-05 13:41 | 49.98891 | 0.48567 | 33503 ft | 416 kts | 148° |
| 2026-05-05 13:41 | 49.96471 | 0.51026 | 33923 ft | 415 kts | 148° |
| 2026-05-05 13:41 | 49.94064 | 0.53476 | 34284 ft | 413 kts | 148° |
| 2026-05-05 13:41 | 49.91659 | 0.55923 | 34576 ft | 413 kts | 148° |
| 2026-05-05 13:42 | 49.89253 | 0.58367 | 34846 ft | 414 kts | 148° |
| 2026-05-05 13:42 | 49.86845 | 0.60815 | 35102 ft | 414 kts | 147° |
| 2026-05-05 13:42 | 49.84579 | 0.63585 | 35351 ft | 416 kts | 138° |
| 2026-05-05 13:42 | 49.82471 | 0.66667 | 35551 ft | 418 kts | 138° |
| 2026-05-05 13:43 | 49.80356 | 0.69756 | 35774 ft | 419 kts | 138° |
| 2026-05-05 13:43 | 49.78233 | 0.72849 | 36035 ft | 418 kts | 139° |
| 2026-05-05 13:43 | 49.76108 | 0.75930 | 36250 ft | 419 kts | 139° |
| 2026-05-05 13:43 | 49.73974 | 0.79010 | 36470 ft | 420 kts | 138° |
| 2026-05-05 13:44 | 49.71838 | 0.82091 | 36712 ft | 420 kts | 139° |
| 2026-05-05 13:44 | 49.69702 | 0.85176 | 36870 ft | 421 kts | 138° |
| 2026-05-05 13:44 | 49.65383 | 0.91432 | 36898 ft | 430 kts | 138° |
| 2026-05-05 13:45 | 49.60998 | 0.97766 | 36894 ft | 433 kts | 138° |
| 2026-05-05 13:45 | 49.56589 | 1.04101 | 36895 ft | 433 kts | 138° |
| 2026-05-05 13:46 | 49.52176 | 1.10422 | 36891 ft | 433 kts | 139° |
| 2026-05-05 13:46 | 49.48507 | 1.15671 | 36895 ft | 433 kts | 138° |
| 2026-05-05 13:47 | 49.44086 | 1.21977 | 36898 ft | 434 kts | 138° |
| 2026-05-05 13:47 | 49.39660 | 1.28274 | 36898 ft | 434 kts | 138° |
| 2026-05-05 13:48 | 49.35230 | 1.34563 | 36900 ft | 434 kts | 139° |
| 2026-05-05 13:48 | 49.30796 | 1.40843 | 36901 ft | 434 kts | 139° |
| 2026-05-05 13:49 | 49.26355 | 1.47098 | 36894 ft | 434 kts | 138° |
| 2026-05-05 13:49 | 49.21888 | 1.53385 | 36887 ft | 434 kts | 138° |
| 2026-05-05 13:50 | 49.17164 | 1.59047 | 36881 ft | 431 kts | 153° |
| 2026-05-05 13:50 | 49.11502 | 1.61930 | 36881 ft | 430 kts | 169° |
| 2026-05-05 13:51 | 49.05589 | 1.63397 | 36872 ft | 431 kts | 168° |
| 2026-05-05 13:51 | 49.02708 | 1.64638 | 36861 ft | 431 kts | 157° |
| 2026-05-05 13:51 | 49.00074 | 1.66786 | 36853 ft | 431 kts | 144° |
| 2026-05-05 13:52 | 48.95623 | 1.72892 | 36838 ft | 432 kts | 137° |
| 2026-05-05 13:52 | 48.91212 | 1.79114 | 36818 ft | 433 kts | 139° |
| 2026-05-05 13:53 | 48.86741 | 1.85251 | 36824 ft | 434 kts | 139° |
| 2026-05-05 13:53 | 48.82259 | 1.91389 | 36831 ft | 434 kts | 139° |
| 2026-05-05 13:54 | 48.77789 | 1.97560 | 36835 ft | 434 kts | 138° |
| 2026-05-05 13:54 | 48.73320 | 2.03722 | 36846 ft | 435 kts | 139° |
| 2026-05-05 13:55 | 48.68836 | 2.09876 | 36839 ft | 435 kts | 139° |
| 2026-05-05 13:55 | 48.64350 | 2.16016 | 36854 ft | 435 kts | 139° |
| 2026-05-05 13:56 | 48.59858 | 2.22157 | 36842 ft | 436 kts | 139° |
| 2026-05-05 13:56 | 48.55351 | 2.28295 | 36842 ft | 437 kts | 139° |
| 2026-05-05 13:57 | 48.50836 | 2.34427 | 36802 ft | 436 kts | 139° |
| 2026-05-05 13:57 | 48.46326 | 2.40546 | 36807 ft | 436 kts | 139° |
| 2026-05-05 13:58 | 48.41811 | 2.46652 | 36814 ft | 436 kts | 139° |
| 2026-05-05 13:58 | 48.37285 | 2.52755 | 36812 ft | 437 kts | 139° |
| 2026-05-05 13:59 | 48.30471 | 2.61921 | 36802 ft | 439 kts | 139° |
| 2026-05-05 14:00 | 48.23631 | 2.71087 | 36809 ft | 440 kts | 139° |
| 2026-05-05 14:00 | 48.18976 | 2.77032 | 36826 ft | 440 kts | 143° |
| 2026-05-05 14:01 | 48.14113 | 2.82610 | 36811 ft | 439 kts | 144° |
| 2026-05-05 14:01 | 48.09225 | 2.88093 | 36813 ft | 439 kts | 144° |
| 2026-05-05 14:02 | 48.04313 | 2.93519 | 36812 ft | 439 kts | 150° |
| 2026-05-05 14:02 | 47.98809 | 2.97401 | 36805 ft | 438 kts | 158° |
| 2026-05-05 14:03 | 47.93198 | 3.00932 | 36821 ft | 438 kts | 158° |
| 2026-05-05 14:03 | 47.87587 | 3.04451 | 36825 ft | 438 kts | 158° |
| 2026-05-05 14:04 | 47.81976 | 3.07967 | 36833 ft | 437 kts | 158° |
| 2026-05-05 14:04 | 47.76364 | 3.11472 | 36835 ft | 437 kts | 158° |
| 2026-05-05 14:05 | 47.70756 | 3.14975 | 36834 ft | 437 kts | 159° |
| 2026-05-05 14:05 | 47.65151 | 3.18476 | 36845 ft | 437 kts | 159° |
| 2026-05-05 14:06 | 47.59544 | 3.21961 | 36838 ft | 437 kts | 159° |
| 2026-05-05 14:06 | 47.53937 | 3.25429 | 36840 ft | 437 kts | 159° |
| 2026-05-05 14:07 | 47.48455 | 3.29324 | 36845 ft | 438 kts | 152° |
| 2026-05-05 14:07 | 47.43178 | 3.33827 | 36825 ft | 438 kts | 152° |
| 2026-05-05 14:08 | 47.37911 | 3.38345 | 36838 ft | 438 kts | 152° |
| 2026-05-05 14:08 | 47.32645 | 3.42846 | 36851 ft | 437 kts | 152° |
| 2026-05-05 14:09 | 47.27370 | 3.47321 | 36846 ft | 438 kts | 152° |
| 2026-05-05 14:09 | 47.22092 | 3.51787 | 36848 ft | 438 kts | 152° |
| 2026-05-05 14:10 | 47.16808 | 3.56252 | 36847 ft | 438 kts | 152° |
| 2026-05-05 14:10 | 47.11522 | 3.60707 | 36846 ft | 438 kts | 153° |
| 2026-05-05 14:11 | 47.06197 | 3.65190 | 36858 ft | 438 kts | 152° |
| 2026-05-05 14:11 | 47.00940 | 3.69600 | 36863 ft | 439 kts | 153° |
| 2026-05-05 14:12 | 46.95884 | 3.74712 | 36865 ft | 443 kts | 137° |
| 2026-05-05 14:12 | 46.92297 | 3.82076 | 36863 ft | 451 kts | 117° |
| 2026-05-05 14:13 | 46.90013 | 3.90642 | 36857 ft | 453 kts | 114° |
| 2026-05-05 14:13 | 46.87738 | 3.99234 | 36850 ft | 453 kts | 114° |
| 2026-05-05 14:14 | 46.85441 | 4.07822 | 36839 ft | 454 kts | 115° |
| 2026-05-05 14:14 | 46.83140 | 4.16421 | 36846 ft | 455 kts | 115° |
| 2026-05-05 14:15 | 46.80857 | 4.25046 | 36853 ft | 457 kts | 111° |
| 2026-05-05 14:15 | 46.79408 | 4.34111 | 36858 ft | 460 kts | 105° |
| 2026-05-05 14:16 | 46.78082 | 4.43239 | 36863 ft | 460 kts | 105° |
| 2026-05-05 14:16 | 46.76735 | 4.52357 | 36856 ft | 459 kts | 105° |
| 2026-05-05 14:17 | 46.75389 | 4.61461 | 36859 ft | 459 kts | 105° |
| 2026-05-05 14:17 | 46.74042 | 4.70566 | 36546 ft | 459 kts | 105° |
| 2026-05-05 14:18 | 46.73364 | 4.75122 | 35794 ft | 461 kts | 105° |
| 2026-05-05 14:18 | 46.72683 | 4.79695 | 35044 ft | 463 kts | 105° |
| 2026-05-05 14:18 | 46.71996 | 4.84290 | 34234 ft | 466 kts | 106° |
| 2026-05-05 14:18 | 46.71302 | 4.88916 | 33253 ft | 469 kts | 106° |
| 2026-05-05 14:19 | 46.70602 | 4.93555 | 32356 ft | 468 kts | 106° |
| 2026-05-05 14:19 | 46.69903 | 4.98175 | 31461 ft | 466 kts | 106° |
| 2026-05-05 14:19 | 46.69204 | 5.02789 | 30543 ft | 465 kts | 105° |
| 2026-05-05 14:19 | 46.68504 | 5.07383 | 29489 ft | 465 kts | 105° |
| 2026-05-05 14:20 | 46.67800 | 5.11975 | 28263 ft | 466 kts | 105° |
| 2026-05-05 14:20 | 46.67098 | 5.16548 | 27608 ft | 457 kts | 105° |
| 2026-05-05 14:20 | 46.66417 | 5.21028 | 26977 ft | 450 kts | 105° |
| 2026-05-05 14:20 | 46.65756 | 5.25438 | 26337 ft | 444 kts | 105° |
| 2026-05-05 14:21 | 46.65103 | 5.29797 | 25693 ft | 439 kts | 105° |
| 2026-05-05 14:21 | 46.64451 | 5.34122 | 25066 ft | 434 kts | 105° |
| 2026-05-05 14:21 | 46.63804 | 5.38402 | 24445 ft | 431 kts | 105° |
| 2026-05-05 14:21 | 46.63159 | 5.42636 | 23822 ft | 428 kts | 106° |
| 2026-05-05 14:22 | 46.62514 | 5.46851 | 23162 ft | 427 kts | 105° |
| 2026-05-05 14:22 | 46.61866 | 5.51061 | 22511 ft | 425 kts | 106° |
| 2026-05-05 14:22 | 46.61218 | 5.55230 | 21903 ft | 421 kts | 105° |
| 2026-05-05 14:22 | 46.60568 | 5.59382 | 21288 ft | 420 kts | 106° |
| 2026-05-05 14:23 | 46.59920 | 5.63496 | 20709 ft | 415 kts | 106° |
| 2026-05-05 14:23 | 46.59277 | 5.67570 | 20127 ft | 412 kts | 106° |
| 2026-05-05 14:23 | 46.58639 | 5.71611 | 19588 ft | 409 kts | 106° |
| 2026-05-05 14:23 | 46.57924 | 5.75590 | 19049 ft | 404 kts | 113° |
| 2026-05-05 14:24 | 46.57211 | 5.78069 | 18692 ft | 399 kts | 120° |
| 2026-05-05 14:24 | 46.55741 | 5.81507 | 18165 ft | 393 kts | 131° |
| 2026-05-05 14:24 | 46.53907 | 5.84410 | 17594 ft | 387 kts | 141° |
| 2026-05-05 14:24 | 46.51790 | 5.86780 | 17058 ft | 382 kts | 148° |
| 2026-05-05 14:25 | 46.49619 | 5.88971 | 16525 ft | 378 kts | 148° |
| 2026-05-05 14:25 | 46.47467 | 5.91140 | 15901 ft | 376 kts | 149° |
| 2026-05-05 14:25 | 46.45322 | 5.93291 | 15431 ft | 371 kts | 149° |
| 2026-05-05 14:25 | 46.43244 | 5.95371 | 15292 ft | 356 kts | 149° |
| 2026-05-05 14:26 | 46.41248 | 5.97369 | 15170 ft | 342 kts | 149° |
| 2026-05-05 14:26 | 46.39330 | 5.99289 | 15062 ft | 329 kts | 149° |
| 2026-05-05 14:26 | 46.37659 | 6.01472 | 14942 ft | 324 kts | 130° |
| 2026-05-05 14:26 | 46.36718 | 6.04408 | 14732 ft | 325 kts | 105° |
| 2026-05-05 14:27 | 46.36725 | 6.07684 | 14365 ft | 334 kts | 79° |
| 2026-05-05 14:27 | 46.37783 | 6.10706 | 13936 ft | 341 kts | 50° |
| 2026-05-05 14:27 | 46.39423 | 6.13163 | 13509 ft | 336 kts | 46° |
| 2026-05-05 14:27 | 46.41064 | 6.15561 | 12773 ft | 334 kts | 46° |
| 2026-05-05 14:28 | 46.42692 | 6.17945 | 12108 ft | 332 kts | 46° |
| 2026-05-05 14:28 | 46.44309 | 6.20313 | 11481 ft | 329 kts | 46° |
| 2026-05-05 14:28 | 46.45906 | 6.22661 | 10833 ft | 327 kts | 46° |
| 2026-05-05 14:28 | 46.47481 | 6.24992 | 10276 ft | 322 kts | 47° |
| 2026-05-05 14:29 | 46.49039 | 6.27303 | 9709 ft | 318 kts | 47° |
| 2026-05-05 14:29 | 46.50571 | 6.29574 | 9303 ft | 308 kts | 47° |
| 2026-05-05 14:29 | 46.51886 | 6.31874 | 9146 ft | 286 kts | 66° |
| 2026-05-05 14:29 | 46.52377 | 6.34573 | 9011 ft | 272 kts | 97° |
| 2026-05-05 14:30 | 46.51971 | 6.37160 | 8846 ft | 259 kts | 125° |
| 2026-05-05 14:30 | 46.50881 | 6.39157 | 8724 ft | 250 kts | 142° |
| 2026-05-05 14:30 | 46.49638 | 6.40904 | 8407 ft | 249 kts | 142° |
| 2026-05-05 14:30 | 46.48331 | 6.42607 | 7720 ft | 252 kts | 154° |
| 2026-05-05 14:31 | 46.46720 | 6.43222 | 7255 ft | 236 kts | 189° |
| 2026-05-05 14:31 | 46.45262 | 6.42403 | 6976 ft | 221 kts | 217° |
| 2026-05-05 14:31 | 46.44142 | 6.40952 | 6717 ft | 212 kts | 224° |
| 2026-05-05 14:31 | 46.43121 | 6.39431 | 6443 ft | 210 kts | 225° |
| 2026-05-05 14:32 | 46.42107 | 6.37917 | 6163 ft | 208 kts | 225° |
| 2026-05-05 14:32 | 46.41098 | 6.36418 | 5886 ft | 207 kts | 224° |
| 2026-05-05 14:32 | 46.40101 | 6.34941 | 5617 ft | 202 kts | 224° |
| 2026-05-05 14:32 | 46.39145 | 6.33522 | 5348 ft | 192 kts | 224° |
| 2026-05-05 14:33 | 46.38246 | 6.32191 | 5118 ft | 179 kts | 224° |
| 2026-05-05 14:33 | 46.37401 | 6.30941 | 4875 ft | 169 kts | 225° |
| 2026-05-05 14:33 | 46.36591 | 6.29744 | 4652 ft | 163 kts | 225° |
| 2026-05-05 14:33 | 46.35828 | 6.28615 | 4431 ft | 152 kts | 224° |
| 2026-05-05 14:34 | 46.35113 | 6.27557 | 4266 ft | 143 kts | 224° |
| 2026-05-05 14:34 | 46.34422 | 6.26536 | 4062 ft | 141 kts | 224° |
| 2026-05-05 14:34 | 46.33741 | 6.25531 | 3881 ft | 139 kts | 224° |
| 2026-05-05 14:34 | 46.33064 | 6.24531 | 3691 ft | 139 kts | 224° |
| 2026-05-05 14:35 | 46.32373 | 6.23503 | 3476 ft | 143 kts | 225° |
| 2026-05-05 14:35 | 46.31690 | 6.22487 | 3293 ft | 145 kts | 224° |
| 2026-05-05 14:35 | 46.31002 | 6.21473 | 3113 ft | 142 kts | 224° |
| 2026-05-05 14:35 | 46.30302 | 6.20472 | 2927 ft | 140 kts | 224° |
| 2026-05-05 14:36 | 46.29622 | 6.19453 | 2711 ft | 138 kts | 226° |
| 2026-05-05 14:36 | 46.28946 | 6.18450 | 2519 ft | 141 kts | 225° |
| 2026-05-05 14:36 | 46.28264 | 6.17443 | 2314 ft | 139 kts | 224° |
| 2026-05-05 14:36 | 46.27592 | 6.16459 | 2139 ft | 136 kts | 226° |
| 2026-05-05 14:37 | 46.26927 | 6.15482 | 1963 ft | 135 kts | 224° |
| 2026-05-05 14:37 | 46.26266 | 6.14509 | 1796 ft | 135 kts | 224° |
| 2026-05-05 14:37 | 46.25593 | 6.13518 | 1583 ft | 139 kts | 224° |
| 2026-05-05 14:37 | 46.24927 | 6.12545 | 1396 ft | 135 kts | 226° |
| 2026-05-05 14:38 | 46.24310 | 6.11624 | 1492 ft | 132 kts | 226° |
| 2026-05-05 14:38 | 46.23598 | 6.10562 | 1891 ft | 162 kts | 226° |
| 2026-05-05 14:38 | 46.22778 | 6.09349 | 2496 ft | 175 kts | 224° |
| 2026-05-05 14:38 | 46.21887 | 6.07978 | 2853 ft | 198 kts | 226° |
| 2026-05-05 14:39 | 46.20902 | 6.06528 | 3552 ft | 203 kts | 218° |
| 2026-05-05 14:39 | 46.19609 | 6.05753 | 4341 ft | 207 kts | 184° |
| 2026-05-05 14:39 | 46.18197 | 6.06221 | 5100 ft | 216 kts | 151° |
| 2026-05-05 14:39 | 46.17105 | 6.07760 | 5924 ft | 224 kts | 130° |
| 2026-05-05 14:40 | 46.16499 | 6.09868 | 6669 ft | 239 kts | 102° |
| 2026-05-05 14:40 | 46.16679 | 6.12287 | 6931 ft | 250 kts | 72° |
| 2026-05-05 14:40 | 46.17620 | 6.14388 | 6998 ft | 253 kts | 44° |
| 2026-05-05 14:40 | 46.18898 | 6.16147 | 7003 ft | 254 kts | 48° |
| 2026-05-05 14:41 | 46.20086 | 6.18021 | 7012 ft | 252 kts | 50° |
| 2026-05-05 14:41 | 46.21258 | 6.19908 | 7005 ft | 253 kts | 50° |
| 2026-05-05 14:41 | 46.22459 | 6.21765 | 7006 ft | 253 kts | 46° |
| 2026-05-05 14:41 | 46.23719 | 6.23544 | 7004 ft | 254 kts | 45° |
| 2026-05-05 14:42 | 46.24995 | 6.25307 | 7010 ft | 253 kts | 45° |
| 2026-05-05 14:42 | 46.26259 | 6.27058 | 6808 ft | 251 kts | 45° |
| 2026-05-05 14:42 | 46.27520 | 6.28802 | 6507 ft | 250 kts | 45° |
| 2026-05-05 14:42 | 46.28775 | 6.30536 | 6207 ft | 249 kts | 45° |
| 2026-05-05 14:43 | 46.30023 | 6.32249 | 6013 ft | 247 kts | 45° |
| 2026-05-05 14:43 | 46.31291 | 6.33925 | 5615 ft | 247 kts | 36° |
| 2026-05-05 14:43 | 46.32839 | 6.34928 | 5285 ft | 243 kts | 8° |
| 2026-05-05 14:43 | 46.34494 | 6.34879 | 4971 ft | 236 kts | 341° |
| 2026-05-05 14:44 | 46.35918 | 6.33842 | 4669 ft | 227 kts | 316° |
| 2026-05-05 14:44 | 46.36962 | 6.32214 | 4361 ft | 215 kts | 286° |
| 2026-05-05 14:44 | 46.37015 | 6.30196 | 4219 ft | 200 kts | 242° |
| 2026-05-05 14:44 | 46.36123 | 6.28788 | 4157 ft | 187 kts | 213° |
| 2026-05-05 14:45 | 46.35173 | 6.27661 | 4094 ft | 166 kts | 224° |
| 2026-05-05 14:45 | 46.34406 | 6.26523 | 3980 ft | 154 kts | 224° |
| 2026-05-05 14:45 | 46.33673 | 6.25434 | 3828 ft | 150 kts | 224° |
| 2026-05-05 14:45 | 46.32961 | 6.24381 | 3647 ft | 144 kts | 224° |
| 2026-05-05 14:46 | 46.32262 | 6.23348 | 3477 ft | 142 kts | 224° |
| 2026-05-05 14:46 | 46.31570 | 6.22327 | 3286 ft | 144 kts | 224° |
| 2026-05-05 14:46 | 46.30870 | 6.21294 | 3090 ft | 145 kts | 224° |
| 2026-05-05 14:46 | 46.30171 | 6.20265 | 2906 ft | 140 kts | 224° |
| 2026-05-05 14:47 | 46.29484 | 6.19251 | 2701 ft | 144 kts | 225° |
| 2026-05-05 14:47 | 46.28784 | 6.18220 | 2502 ft | 145 kts | 225° |
| 2026-05-05 14:47 | 46.28079 | 6.17182 | 2288 ft | 146 kts | 224° |
| 2026-05-05 14:47 | 46.27390 | 6.16169 | 2091 ft | 139 kts | 226° |
| 2026-05-05 14:48 | 46.26700 | 6.15151 | 1893 ft | 142 kts | 224° |
| 2026-05-05 14:48 | 46.26008 | 6.14134 | 1698 ft | 139 kts | 224° |
| 2026-05-05 14:48 | 46.25328 | 6.13132 | 1478 ft | 140 kts | 225° |
| 2026-05-05 14:48 | 46.24657 | 6.12142 | 1378 ft | 129 kts | 226° |
| 2026-05-05 14:49 | 46.24127 | 6.11365 | 1374 ft | 85 kts | 225° |
| 2026-05-05 14:49 | 46.23836 | 6.10939 | 1381 ft | 39 kts | 226° |
| 2026-05-05 14:49 | 46.23680 | 6.10755 | 1382 ft | 19 kts | 201° |
| 2026-05-05 14:49 | 46.23551 | 6.10710 | 1385 ft | 13 kts | 196° |
| 2026-05-05 14:50 | 46.23477 | 6.10680 | 1389 ft | 10 kts | 196° |
| 2026-05-05 14:50 | 46.23425 | 6.10693 | 1396 ft | 6 kts | 140° |
| 2026-05-05 14:50 | 46.23395 | 6.10736 | 1392 ft | 7 kts | 135° |
| 2026-05-05 14:50 | 46.23365 | 6.10780 | 1398 ft | 4 kts | 134° |
| 2026-05-05 14:51 | 46.23364 | 6.10782 | 1393 ft | 0 kts | 134° |
| 2026-05-05 14:51 | 46.23362 | 6.10784 | 1393 ft | 1 kts | 134° |
| 2026-05-05 14:52 | 46.23352 | 6.10800 | 1396 ft | 3 kts | 128° |
| 2026-05-05 14:52 | 46.23352 | 6.10835 | 1396 ft | 4 kts | 67° |
| 2026-05-05 14:52 | 46.23368 | 6.10863 | 1401 ft | 1 kts | 46° |
| 2026-05-05 14:52 | 46.23376 | 6.10890 | 1400 ft | 5 kts | 91° |
| 2026-05-05 14:53 | 46.23350 | 6.10933 | 1393 ft | 7 kts | 138° |
| 2026-05-05 14:53 | 46.23326 | 6.10967 | 1393 ft | 2 kts | 135° |
| 2026-05-05 14:53 | 46.23319 | 6.10977 | 1393 ft | 0 kts | 135° |